Time;durP1;ratioP1;P1;durP2;ratioP2;P2;SDS_P1;SDS_P2;PMS_P1;PMS_P2;Temp;Humidity;BMP_temperature;BMP_pressure;BME280_temperature;BME280_humidity;BME280_pressure;Samples;Min_cycle;Max_cycle;Signal;HPM_P1;HPM_P2
2022/05/31 05:33:04;;;;;;;6.43;4.00;;;10.30;87.70;;;;;;6246975;23;20091;-77
2022/05/31 05:43:41;;;;;;;9.32;4.57;;;10.40;86.70;;;;;;6067007;23;20057;-81
2022/05/31 05:46:23;;;;;;;7.85;4.60;;;10.50;86.10;;;;;;6018437;23;20090;-74
2022/05/31 05:48:49;;;;;;;9.15;4.68;;;10.60;85.10;;;;;;6020006;23;20018;-75
2022/05/31 05:51:20;;;;;;;7.18;4.88;;;10.70;85.70;;;;;;6164826;23;20078;-76
2022/05/31 05:53:46;;;;;;;9.70;5.60;;;10.80;85.20;;;;;;6216667;23;20012;-75
2022/05/31 05:56:13;;;;;;;10.02;5.88;;;10.80;84.50;;;;;;6190198;23;20013;-76
2022/05/31 05:58:40;;;;;;;12.27;5.60;;;10.90;85.10;;;;;;6189643;23;20035;-75
2022/05/31 06:01:12;;;;;;;10.55;5.65;;;10.90;85.50;;;;;;6188938;23;20008;-75
2022/05/31 06:03:51;;;;;;;9.48;6.10;;;10.90;85.80;;;;;;6164987;23;20439;-73
2022/05/31 06:06:17;;;;;;;9.70;5.63;;;11.00;86.10;;;;;;6189871;23;20495;-73
2022/05/31 06:09:01;;;;;;;8.73;5.22;;;11.00;85.80;;;;;;6164714;23;20013;-74
2022/05/31 06:11:49;;;;;;;8.10;4.90;;;11.10;85.10;;;;;;6190250;23;20024;-74
2022/05/31 06:14:23;;;;;;;10.35;5.90;;;11.10;83.60;;;;;;6164773;23;20008;-74
2022/05/31 06:16:52;;;;;;;7.45;4.55;;;11.10;83.70;;;;;;6190115;23;20494;-76
2022/05/31 06:19:24;;;;;;;6.00;3.40;;;11.20;82.60;;;;;;6164748;23;20092;-75
2022/05/31 06:21:51;;;;;;;4.95;2.45;;;11.20;80.90;;;;;;6189387;23;20087;-75
2022/05/31 06:24:19;;;;;;;7.63;2.90;;;11.40;80.30;;;;;;6164758;23;20024;-74
2022/05/31 06:26:45;;;;;;;5.68;2.60;;;11.50;79.90;;;;;;6165015;23;20008;-75
2022/05/31 06:29:11;;;;;;;7.30;2.72;;;11.50;80.50;;;;;;6189781;23;20096;-76
2022/05/31 06:31:37;;;;;;;;;;;11.50;78.20;;;;;;6207605;23;20031;-75
2022/05/31 06:34:03;;;;;;;5.40;2.67;;;11.50;79.10;;;;;;6244760;23;19908;-74
2022/05/31 06:36:30;;;;;;;8.77;2.83;;;11.60;79.20;;;;;;6244861;23;20012;-76
2022/05/31 06:38:56;;;;;;;4.55;2.75;;;11.70;79.60;;;;;;6219671;23;20008;-74
2022/05/31 06:41:21;;;;;;;7.20;2.80;;;11.80;78.50;;;;;;6219776;23;20012;-75
2022/05/31 06:43:47;;;;;;;5.65;2.97;;;11.80;77.90;;;;;;6219777;23;20474;-74
2022/05/31 06:46:13;;;;;;;7.35;2.88;;;11.70;77.70;;;;;;6244976;23;20012;-74
2022/05/31 06:48:39;;;;;;;7.15;3.00;;;11.80;79.20;;;;;;6219542;23;20323;-74
2022/05/31 06:51:10;;;;;;;4.93;3.00;;;11.90;78.70;;;;;;6219898;23;20016;-74
2022/05/31 06:59:05;;;;;;;7.45;3.40;;;12.00;77.60;;;;;;6244738;23;20043;-76
2022/05/31 07:01:37;;;;;;;10.07;3.53;;;12.00;77.60;;;;;;6244585;23;20054;-75
2022/05/31 07:04:04;;;;;;;7.43;3.88;;;12.00;77.00;;;;;;6219779;23;20135;-75
2022/05/31 07:06:32;;;;;;;7.88;3.42;;;12.10;77.20;;;;;;6244851;23;20015;-74
2022/05/31 07:08:57;;;;;;;7.22;3.42;;;12.20;76.50;;;;;;6244856;23;20380;-74
2022/05/31 07:11:23;;;;;;;9.40;3.47;;;12.10;78.70;;;;;;6219221;23;20074;-74
2022/05/31 07:13:49;;;;;;;8.40;3.47;;;12.30;77.20;;;;;;6244969;23;20012;-74
2022/05/31 07:16:15;;;;;;;7.07;3.05;;;12.40;77.70;;;;;;6244915;23;20012;-74
2022/05/31 07:18:42;;;;;;;7.70;3.20;;;12.50;76.90;;;;;;6219929;23;20010;-75
2022/05/31 07:21:08;;;;;;;6.47;3.42;;;12.50;77.70;;;;;;6244783;23;20016;-76
2022/05/31 07:23:34;;;;;;;8.93;3.97;;;12.60;77.50;;;;;;6219651;23;20297;-76
2022/05/31 07:26:00;;;;;;;5.65;3.47;;;12.80;75.00;;;;;;6219494;23;20024;-76
2022/05/31 07:28:28;;;;;;;8.40;3.97;;;13.10;77.00;;;;;;6219452;23;20411;-76
2022/05/31 07:30:54;;;;;;;9.10;3.90;;;13.40;73.90;;;;;;6244598;23;20012;-75
2022/05/31 07:33:20;;;;;;;10.32;4.40;;;13.60;74.00;;;;;;6246550;23;20431;-75
2022/05/31 07:35:47;;;;;;;6.75;3.60;;;13.80;74.30;;;;;;6196612;23;20019;-75
2022/05/31 07:38:13;;;;;;;7.82;4.00;;;14.10;73.60;;;;;;6246698;23;20008;-75
2022/05/31 07:40:38;;;;;;;7.45;3.53;;;14.20;73.00;;;;;;6246923;23;20416;-75
2022/05/31 07:43:04;;;;;;;7.75;4.20;;;14.20;72.70;;;;;;6246835;23;20016;-75
2022/05/31 07:45:30;;;;;;;6.85;4.28;;;14.50;72.00;;;;;;6221389;23;20015;-75
2022/05/31 07:47:56;;;;;;;6.03;3.88;;;14.70;70.10;;;;;;6246647;23;20030;-76
2022/05/31 07:50:22;;;;;;;7.22;3.70;;;14.80;70.00;;;;;;6221454;23;20355;-75
2022/05/31 07:52:48;;;;;;;25.73;5.10;;;15.10;71.20;;;;;;6246592;23;20020;-77
2022/05/31 07:55:14;;;;;;;6.05;3.78;;;15.40;71.20;;;;;;6246241;23;20016;-75
2022/05/31 08:00:24;;;;;;;6.93;4.55;;;15.50;68.30;;;;;;6246155;23;20008;-75
2022/05/31 08:02:50;;;;;;;7.95;4.45;;;15.50;68.00;;;;;;6220921;23;20008;-76
2022/05/31 08:05:16;;;;;;;9.80;3.80;;;15.70;67.40;;;;;;6246628;23;20091;-77
2022/05/31 08:07:42;;;;;;;7.53;3.78;;;15.50;68.90;;;;;;6246827;23;20012;-77
2022/05/31 08:10:11;;;;;;;7.25;4.10;;;15.90;68.10;;;;;;6246587;23;20016;-76
2022/05/31 08:12:37;;;;;;;6.07;4.05;;;16.00;66.00;;;;;;6246528;23;20047;-77
2022/05/31 08:15:04;;;;;;;8.55;4.13;;;16.20;66.10;;;;;;6220681;23;20020;-77
2022/05/31 08:17:30;;;;;;;10.27;4.75;;;16.00;65.30;;;;;;6220741;23;20012;-80
2022/05/31 08:19:59;;;;;;;9.05;5.00;;;16.20;64.80;;;;;;6221144;23;20011;-75
2022/05/31 08:22:24;;;;;;;9.75;4.25;;;16.40;64.80;;;;;;6196172;23;20371;-75
2022/05/31 08:24:50;;;;;;;6.35;4.13;;;16.50;63.60;;;;;;6221164;23;20090;-76
2022/05/31 08:27:16;;;;;;;9.88;5.07;;;16.60;63.20;;;;;;6246309;23;20066;-75
2022/05/31 08:29:47;;;;;;;6.85;4.25;;;16.80;62.60;;;;;;6220793;23;20115;-76
2022/05/31 08:32:14;;;;;;;7.22;4.75;;;16.60;62.10;;;;;;6246244;23;20012;-77
2022/05/31 08:34:48;;;;;;;11.02;4.40;;;16.80;61.40;;;;;;6220816;23;20008;-76
2022/05/31 08:37:55;;;;;;;9.93;4.60;;;16.90;61.40;;;;;;6245433;23;20323;-81
2022/05/31 08:40:20;;;;;;;10.75;4.68;;;16.90;63.00;;;;;;6241765;23;20012;-79
2022/05/31 08:42:59;;;;;;;11.15;5.10;;;16.80;62.50;;;;;;6220038;23;20318;-78
2022/05/31 08:45:36;;;;;;;11.10;5.30;;;16.80;61.30;;;;;;6219318;23;20008;-77
2022/05/31 08:58:10;;;;;;;14.43;5.13;;;17.20;58.40;;;;;;6237225;23;20035;-76
2022/05/31 09:00:42;;;;;;;12.45;6.13;;;17.60;56.30;;;;;;6219720;23;20012;-77
2022/05/31 09:03:20;;;;;;;11.10;6.13;;;17.30;58.40;;;;;;6219417;23;20008;-79
2022/05/31 09:05:54;;;;;;;13.00;5.45;;;17.30;57.20;;;;;;6219711;23;20004;-79
2022/05/31 09:09:05;;;;;;;11.27;5.90;;;17.30;57.30;;;;;;6219200;23;20008;-76
2022/05/31 09:11:59;;;;;;;8.68;5.57;;;17.10;55.70;;;;;;6218944;23;20069;-77
2022/05/31 09:21:40;;;;;;;12.35;4.80;;;17.80;57.60;;;;;;6243716;23;20023;-76
2022/05/31 09:24:23;;;;;;;10.63;4.68;;;17.70;57.40;;;;;;6219687;23;20004;-77
2022/05/31 09:26:54;;;;;;;10.77;4.53;;;17.80;55.90;;;;;;6211094;23;20008;-79
2022/05/31 09:29:33;;;;;;;11.90;5.72;;;17.70;55.70;;;;;;6218294;23;20338;-76
2022/05/31 09:32:20;;;;;;;11.07;5.07;;;17.90;54.00;;;;;;6246113;22;20012;-77
2022/05/31 09:43:07;;;;;;;8.38;5.53;;;18.10;53.10;;;;;;6123383;23;20028;-78
2022/05/31 09:45:41;;;;;;;7.95;5.20;;;18.50;54.70;;;;;;6099237;23;20368;-73
2022/05/31 09:48:58;;;;;;;8.75;5.65;;;18.90;54.00;;;;;;6244437;23;20097;-78
2022/05/31 09:52:29;;;;;;;12.10;6.70;;;18.50;52.10;;;;;;6218938;23;20011;-76
2022/05/31 09:58:44;;;;;;;8.23;5.13;;;18.70;55.00;;;;;;6098847;23;20014;-85
2022/05/31 10:05:15;;;;;;;11.10;5.50;;;18.80;54.40;;;;;;6087434;23;20018;-79
2022/05/31 10:23:09;;;;;;;13.20;5.95;;;18.90;50.20;;;;;;6151598;23;20060;-72
2022/05/31 10:30:14;;;;;;;9.77;5.40;;;18.70;49.00;;;;;;5978575;24;20101;-73
2022/05/31 10:33:57;;;;;;;;;;;;;;;;;;;;;
2022/05/31 10:37:13;;;;;;;;;;;;;;;;;;;;;
2022/05/31 10:40:38;;;;;;;9.77;4.88;;;18.70;50.00;;;;;;5812515;24;20104;-77
2022/05/31 10:44:27;;;;;;;;;;;;;;;;;;;;;
2022/05/31 10:47:22;;;;;;;12.45;5.25;;;19.20;49.80;;;;;;5884076;24;20011;-78
2022/05/31 10:49:52;;;;;;;10.27;5.60;;;19.20;46.20;;;;;;5904600;24;20107;-79
2022/05/31 10:52:39;;;;;;;13.32;5.60;;;19.10;46.80;;;;;;5927160;24;20400;-76
2022/05/31 11:02:44;;;;;;;9.73;5.25;;;19.10;48.40;;;;;;6010329;23;20023;-79
2022/05/31 11:05:19;;;;;;;7.18;5.45;;;18.60;48.30;;;;;;6045141;23;20015;-73
2022/05/31 11:11:30;;;;;;;10.43;5.30;;;18.50;49.70;;;;;;6096016;23;20025;-78
2022/05/31 11:14:19;;;;;;;9.93;5.00;;;18.60;49.20;;;;;;6098337;23;20014;-80
2022/05/31 11:17:09;;;;;;;11.82;5.43;;;19.10;50.20;;;;;;6097307;23;20022;-76
2022/05/31 11:31:25;;;;;;;9.88;4.95;;;19.90;45.90;;;;;;6082323;23;20025;-78
2022/05/31 11:34:40;;;;;;;8.57;5.30;;;19.80;45.60;;;;;;6046072;23;20123;-81
2022/05/31 11:38:06;;;;;;;8.20;4.82;;;19.40;48.00;;;;;;6009537;23;20012;-77
2022/05/31 11:48:49;;;;;;;9.00;4.50;;;19.50;46.80;;;;;;6063964;23;20022;-75
2022/05/31 11:59:12;;;;;;;10.48;5.10;;;19.30;47.30;;;;;;6065247;23;20056;-81
2022/05/31 12:02:37;;;;;;;9.45;4.88;;;19.00;48.50;;;;;;6119489;23;20340;-80
2022/05/31 12:12:34;;;;;;;9.07;4.60;;;18.80;51.40;;;;;;6032224;23;20022;-78
2022/05/31 13:43:42;;;;;;;14.50;7.75;;;15.90;68.10;;;;;;6159515;23;19912;-81
2022/05/31 13:47:11;;;;;;;12.73;8.52;;;15.80;67.60;;;;;;6136376;23;20144;-83
2022/05/31 13:50:25;;;;;;;11.98;8.75;;;15.70;70.30;;;;;;6037241;23;20015;-82
2022/05/31 13:53:29;;;;;;;13.55;9.25;;;15.70;73.30;;;;;;6182775;23;20008;-79
2022/05/31 13:56:41;;;;;;;12.15;8.88;;;15.70;74.00;;;;;;6188423;23;20047;-77
2022/05/31 14:03:27;;;;;;;12.20;8.55;;;15.80;69.60;;;;;;6122773;23;20487;-74
2022/05/31 14:06:03;;;;;;;11.10;7.95;;;15.40;69.50;;;;;;6188734;23;20091;-75
2022/05/31 14:08:47;;;;;;;15.85;8.77;;;15.60;69.70;;;;;;6213545;23;20017;-74
2022/05/31 14:11:22;;;;;;;12.18;7.43;;;15.60;70.00;;;;;;6213222;23;20012;-79
2022/05/31 14:25:51;;;;;;;10.75;7.70;;;15.60;68.30;;;;;;6122888;23;20489;-72
2022/05/31 14:53:20;;;;;;;;;;;;;;;;;;;;;
2022/05/31 15:08:08;;;;;;;12.00;8.00;;;14.90;74.70;;;;;;5843856;24;20021;-78
2022/05/31 15:10:53;;;;;;;11.70;6.82;;;14.50;73.10;;;;;;5821644;24;20533;-77
2022/05/31 15:18:59;;;;;;;10.20;7.93;;;14.40;72.60;;;;;;5861340;23;20018;-73
2022/05/31 15:21:35;;;;;;;15.93;8.10;;;14.40;73.00;;;;;;5962132;23;20110;-73
2022/05/31 15:24:03;;;;;;;15.83;8.83;;;14.40;74.10;;;;;;5999422;23;20095;-74
2022/05/31 15:26:30;;;;;;;11.70;8.07;;;14.30;74.50;;;;;;6134206;23;20023;-74
2022/05/31 15:28:56;;;;;;;10.40;7.80;;;14.30;75.20;;;;;;6159510;23;20049;-75
2022/05/31 15:31:33;;;;;;;12.38;7.65;;;14.30;75.70;;;;;;6159576;23;20013;-75
2022/05/31 15:34:00;;;;;;;11.32;7.55;;;14.30;75.00;;;;;;6135192;23;20028;-75
2022/05/31 15:36:27;;;;;;;10.63;7.40;;;14.30;75.60;;;;;;6159479;23;20017;-74
2022/05/31 15:38:55;;;;;;;21.67;7.57;;;14.30;72.90;;;;;;6134362;23;20013;-74
2022/05/31 15:41:28;;;;;;;9.80;6.40;;;14.10;74.30;;;;;;6135136;23;20021;-77
2022/05/31 15:43:58;;;;;;;10.82;7.45;;;13.90;74.30;;;;;;6169515;23;20028;-73
2022/05/31 15:46:38;;;;;;;8.30;6.20;;;13.70;77.50;;;;;;6189714;23;20024;-75
2022/05/31 15:49:08;;;;;;;8.18;5.63;;;13.50;76.80;;;;;;6198230;23;20013;-75
2022/05/31 15:51:43;;;;;;;7.97;5.00;;;13.20;76.70;;;;;;6164385;23;20338;-75
2022/05/31 15:54:16;;;;;;;5.05;3.40;;;13.10;75.30;;;;;;6166310;23;20024;-77
2022/05/31 15:56:44;;;;;;;6.05;3.40;;;12.90;77.70;;;;;;6166785;23;20008;-78
2022/05/31 15:59:16;;;;;;;6.50;4.38;;;12.70;78.70;;;;;;6190731;23;20012;-75
2022/05/31 16:01:42;;;;;;;8.68;3.70;;;12.50;81.60;;;;;;6167346;23;20013;-76
2022/05/31 16:04:08;;;;;;;5.97;3.30;;;12.50;79.80;;;;;;6191142;23;20454;-77
2022/05/31 16:06:33;;;;;;;6.60;3.20;;;12.30;82.10;;;;;;6216224;23;20054;-78
2022/05/31 16:10:13;;;;;;;7.32;3.70;;;12.30;80.70;;;;;;6190942;23;20012;-74
2022/05/31 16:13:20;;;;;;;7.05;4.25;;;12.20;82.70;;;;;;6096919;23;20010;-75
2022/05/31 16:15:48;;;;;;;5.50;3.45;;;12.10;85.10;;;;;;6048410;23;20373;-80
2022/05/31 16:18:38;;;;;;;7.82;3.33;;;12.20;84.30;;;;;;6024330;23;20093;-79
2022/05/31 16:21:23;;;;;;;6.07;3.83;;;12.10;85.20;;;;;;6096103;23;20358;-80
2022/05/31 16:23:53;;;;;;;7.85;4.28;;;12.00;86.60;;;;;;6072007;23;20021;-76
2022/05/31 16:26:24;;;;;;;9.48;5.65;;;12.00;84.60;;;;;;6072659;23;20065;-75
2022/05/31 16:28:52;;;;;;;6.45;4.90;;;12.00;85.40;;;;;;6071746;23;20014;-74
2022/05/31 16:46:55;;;;;;;19.88;4.78;;;11.80;84.10;;;;;;6091721;23;20028;-80
2022/05/31 16:50:28;;;;;;;16.08;4.85;;;11.80;86.20;;;;;;6206682;23;20012;-79
2022/05/31 16:52:42;;;;;;;11.93;4.20;;;11.90;86.80;;;;;;6173326;23;20431;-81
2022/05/31 16:55:19;;;;;;;9.15;4.50;;;11.90;87.70;;;;;;6165530;23;20438;-78
2022/05/31 16:57:54;;;;;;;7.95;4.90;;;11.90;90.00;;;;;;6165694;23;20008;-80
2022/05/31 17:00:46;;;;;;;9.10;3.92;;;11.90;89.40;;;;;;6145366;23;20020;-80
2022/05/31 17:03:53;;;;;;;7.30;3.47;;;11.90;87.60;;;;;;6165807;23;20055;-79
2022/05/31 18:25:18;;;;;;;4.97;3.38;;;12.80;82.60;;;;;;6065556;23;20018;-79
2022/05/31 18:31:14;;;;;;;4.15;3.20;;;12.60;79.80;;;;;;6159125;23;20059;-81
2022/05/31 18:33:51;;;;;;;4.50;3.13;;;12.60;81.50;;;;;;6134918;23;20063;-75
2022/05/31 18:36:55;;;;;;;5.60;3.30;;;12.50;81.80;;;;;;6134370;23;20017;-79
2022/05/31 18:39:11;;;;;;;3.78;2.95;;;12.50;83.20;;;;;;6158593;23;20013;-79
2022/05/31 18:41:38;;;;;;;4.13;3.03;;;12.50;82.60;;;;;;6158716;23;20027;-79
2022/05/31 18:44:04;;;;;;;5.10;3.67;;;12.50;82.80;;;;;;6134180;23;20091;-80
2022/05/31 18:46:34;;;;;;;6.93;3.30;;;12.30;83.80;;;;;;6133632;23;20008;-80
2022/05/31 18:49:18;;;;;;;5.93;3.30;;;12.20;83.80;;;;;;6134218;23;20056;-80
2022/05/31 18:51:52;;;;;;;5.93;3.50;;;12.30;84.70;;;;;;6154397;23;20373;-77
2022/05/31 18:54:21;;;;;;;6.43;4.20;;;12.30;83.20;;;;;;6192351;23;20139;-80
2022/05/31 18:58:15;;;;;;;;;;;;;;;;;;;;;
2022/05/31 19:01:27;;;;;;;12.80;7.05;;;12.30;84.00;;;;;;6114548;23;20056;-82
2022/05/31 19:04:29;;;;;;;13.60;8.30;;;12.10;86.00;;;;;;6156202;23;20012;-82
2022/05/31 19:07:43;;;;;;;11.90;7.60;;;12.10;86.80;;;;;;6207373;23;20332;-75
2022/05/31 19:29:54;;;;;;;10.70;7.90;;;12.00;83.40;;;;;;6066573;23;20013;-77
2022/05/31 19:32:30;;;;;;;11.35;8.10;;;12.00;85.50;;;;;;6010334;23;20435;-78
2022/05/31 19:34:57;;;;;;;9.60;8.27;;;12.00;84.30;;;;;;6034728;23;20096;-79
2022/05/31 19:37:27;;;;;;;8.93;7.50;;;12.00;85.10;;;;;;6076318;23;20010;-78
2022/05/31 19:39:55;;;;;;;13.13;9.35;;;12.10;83.60;;;;;;6076686;23;20028;-78
2022/05/31 19:42:28;;;;;;;14.23;9.45;;;12.00;85.40;;;;;;6100918;23;20013;-77
2022/05/31 19:45:00;;;;;;;10.85;9.57;;;12.00;85.20;;;;;;6132398;23;20063;-82
2022/05/31 19:47:26;;;;;;;12.65;9.32;;;12.00;85.10;;;;;;6159083;23;20009;-78
2022/05/31 19:49:55;;;;;;;12.65;8.93;;;12.00;85.90;;;;;;6159526;23;20020;-79
2022/05/31 19:52:24;;;;;;;14.43;10.07;;;11.90;85.00;;;;;;6158915;23;20009;-81
2022/05/31 19:55:03;;;;;;;12.45;9.65;;;11.90;86.10;;;;;;6159079;23;20009;-80
2022/05/31 19:57:57;;;;;;;15.32;8.88;;;11.90;86.00;;;;;;6158798;23;20028;-81
2022/05/31 20:00:26;;;;;;;11.88;10.25;;;11.80;85.60;;;;;;6159823;23;20013;-78
2022/05/31 20:02:51;;;;;;;11.82;9.35;;;11.80;86.70;;;;;;6167534;23;20355;-81
2022/05/31 20:05:18;;;;;;;13.50;10.00;;;11.80;86.20;;;;;;6190618;23;20013;-78
2022/05/31 20:07:44;;;;;;;;;;;11.70;87.60;;;;;;6190552;23;20420;-78
2022/05/31 20:10:15;;;;;;;18.85;12.98;;;11.70;88.40;;;;;;6193462;23;19907;-77
2022/05/31 20:12:44;;;;;;;14.18;10.30;;;11.70;88.10;;;;;;6195331;23;20091;-79
2022/05/31 20:15:42;;;;;;;13.88;10.05;;;11.70;87.40;;;;;;6195277;23;20091;-77
2022/05/31 20:20:58;;;;;;;;;;;;;;;;;;;;;
2022/05/31 20:23:26;;;;;;;11.63;9.25;;;11.70;86.60;;;;;;6217968;23;20079;-79
2022/05/31 20:25:52;;;;;;;15.05;9.73;;;11.60;87.70;;;;;;6220640;23;20082;-73
2022/05/31 20:28:55;;;;;;;;;;;11.60;87.20;;;;;;6195653;23;20008;-71
2022/05/31 20:31:30;;;;;;;11.82;9.25;;;11.50;87.20;;;;;;6197192;23;19914;-72
2022/05/31 20:33:55;;;;;;;12.77;8.82;;;11.50;86.70;;;;;;6194466;23;20012;-72
2022/05/31 20:36:21;;;;;;;11.73;9.02;;;11.50;86.80;;;;;;6195297;23;20016;-72
2022/05/31 20:39:43;;;;;;;14.52;9.77;;;11.40;86.00;;;;;;6219639;22;20112;-74
2022/05/31 20:42:19;;;;;;;15.30;11.35;;;11.40;86.70;;;;;;6216760;23;20023;-70
2022/05/31 20:44:53;;;;;;;13.57;9.68;;;11.20;87.20;;;;;;6196858;23;20070;-72
2022/05/31 20:47:25;;;;;;;13.73;9.82;;;11.20;86.90;;;;;;6219616;23;20442;-71
2022/05/31 20:49:50;;;;;;;12.57;10.63;;;11.20;87.10;;;;;;6219651;23;20069;-73
2022/05/31 20:52:19;;;;;;;11.30;9.17;;;11.20;88.30;;;;;;6219713;23;20312;-73
2022/05/31 20:54:45;;;;;;;13.35;10.15;;;11.10;88.60;;;;;;6219961;23;20005;-71
2022/05/31 20:57:15;;;;;;;13.52;9.70;;;11.20;89.00;;;;;;6219671;23;20031;-71
2022/05/31 20:59:54;;;;;;;15.82;10.55;;;11.20;88.90;;;;;;6194989;23;20020;-72
2022/05/31 21:02:20;;;;;;;10.65;9.55;;;11.20;88.90;;;;;;6219788;23;20008;-78
2022/05/31 21:04:46;;;;;;;14.70;11.52;;;11.20;89.50;;;;;;6220391;23;20070;-79
2022/05/31 21:07:14;;;;;;;15.95;10.13;;;11.20;90.10;;;;;;6194153;23;20004;-77
2022/05/31 21:09:40;;;;;;;17.42;11.05;;;11.20;90.00;;;;;;6194187;23;20636;-81
2022/05/31 21:12:08;;;;;;;12.63;10.00;;;11.20;90.50;;;;;;6194255;23;20044;-79
2022/05/31 21:14:36;;;;;;;13.02;10.27;;;11.30;90.30;;;;;;6170491;23;20008;-83
2022/05/31 21:17:06;;;;;;;12.65;10.30;;;11.30;90.30;;;;;;6194525;23;20012;-81
2022/05/31 21:19:33;;;;;;;11.88;9.77;;;11.40;90.90;;;;;;6194406;23;20019;-79
2022/05/31 21:22:02;;;;;;;13.48;10.95;;;11.40;90.20;;;;;;6219630;23;20015;-78
2022/05/31 21:24:28;;;;;;;13.50;10.80;;;11.30;90.80;;;;;;6194291;23;20016;-80
2022/05/31 21:27:51;;;;;;;;;;;;;;;;;;;;;
2022/05/31 21:31:34;;;;;;;14.73;12.52;;;11.30;91.50;;;;;;6201086;23;20062;-78
2022/05/31 21:34:00;;;;;;;20.15;11.98;;;11.30;91.80;;;;;;6139048;23;20062;-82
2022/05/31 21:36:26;;;;;;;17.60;11.32;;;11.20;91.60;;;;;;6193671;23;20365;-80
